Flight Track Log - Related Links

Times and Time Zones

All times are in EDT time to prevent confusion due to time zone crossing. See the UPS1143 flight status page for this flight to view local times or setup timezone preferences in your user account.

Time Position Orientation Groundspeed Altitude Reporting Facility
EDT Latitude Longitude Course Direction KTS MPH feet Rate Location/Type
Wed 11:24:10 PM 42.8702 -78.8216 223° Southwest 258 297 4,800  Level FlightAware ADS-B (CYYZ)
Wed 11:24:26 PM 42.8560 -78.8385 223° Southwest 267 307 5,800 3,800 Climbing FlightAware ADS-B (CYYZ)
Wed 11:24:40 PM 42.8420 -78.8557 223° Southwest 274 315 6,700 3,800 Climbing FlightAware ADS-B (CYYZ)
Wed 11:24:56 PM 42.8277 -78.8731 222° Southwest 278 320 7,700 3,677 Climbing FlightAware ADS-B (CYYZ)
Wed 11:25:11 PM 42.8132 -78.8905 221° Southwest 282 325 8,600 3,200 Climbing FlightAware ADS-B (CYYZ)
Wed 11:25:26 PM 42.7977 -78.9093 221° Southwest 287 330 9,300 2,933 Climbing FlightAware ADS-B (CYYZ)
Wed 11:25:56 PM 42.7688 -78.9429 222° Southwest 299 344 10,800 2,441 Climbing FlightAware ADS-B (CYYZ)
Wed 11:26:25 PM 42.7335 -78.9856 222° Southwest 341 392 11,700 1,627 Climbing FlightAware ADS-B (CYYZ)
Wed 11:26:55 PM 42.6962 -79.0294 222° Southwest 381 438 12,400 2,164 Climbing FlightAware ADS-B (CYYZ)
Wed 11:27:26 PM 42.6559 -79.0781 222° Southwest 392 451 13,900 3,000 Climbing FlightAware ADS-B (CYYZ)
Wed 11:27:55 PM 42.6139 -79.1274 222° Southwest 401 461 15,400 3,067 Climbing FlightAware ADS-B (CYYZ)
Wed 11:28:11 PM 42.5926 -79.1540 221° Southwest 405 466 16,200 2,710 Climbing FlightAware ADS-B (EPLB / LUZ)
Wed 11:28:26 PM 42.5731 -79.1787 226° Southwest 406 467 16,800 2,727 Climbing FlightAware ADS-B (CYYZ)
Wed 11:28:55 PM 42.5370 -79.2384 232° Southwest 411 473 18,200 2,847 Climbing FlightAware ADS-B (CYYZ)
Wed 11:29:25 PM 42.5022 -79.2994 232° Southwest 415 478 19,600 2,727 Climbing FlightAware ADS-B (CYYZ)
Wed 11:29:39 PM 42.4848 -79.3280 232° Southwest 418 481 20,200 2,800 Climbing FlightAware ADS-B (EPLB / LUZ)
Wed 11:29:55 PM 42.4654 -79.3608 232° Southwest 419 482 21,000 3,200 Climbing FlightAware ADS-B (CYYZ)
Wed 11:30:09 PM 42.4488 -79.3897 231° Southwest 423 487 21,800 2,323 Climbing FlightAware ADS-B (EPLB / LUZ)
Wed 11:30:26 PM 42.4302 -79.4207 232° Southwest 424 488 22,200 2,057 Climbing FlightAware ADS-B (CYYZ)
Wed 11:30:44 PM 42.4075 -79.4602 232° Southwest 427 491 23,000 2,400 Climbing FlightAware ADS-B (EPLB / LUZ)
Wed 11:30:56 PM 42.3912 -79.4874 232° Southwest 428 493 23,400 2,049 Climbing FlightAware ADS-B (CYYZ)
Wed 11:31:25 PM 42.3540 -79.5486 232° Southwest 436 502 24,400 1,932 Climbing FlightAware ADS-B (CYYZ)
Wed 11:31:55 PM 42.3158 -79.6131 232° Southwest 445 512 25,300 1,895 Climbing FlightAware ADS-B (CYYZ)
Wed 11:32:03 PM 42.3056 -79.6305 231° Southwest 448 516 25,600 1,800 Climbing FlightAware ADS-B (EPLB / LUZ)
Wed 11:32:25 PM 42.2767 -79.6785 232° Southwest 450 518 26,200 1,800 Climbing FlightAware ADS-B (CYYZ)
Wed 11:32:53 PM 42.2403 -79.7399 231° Southwest 455 524 27,100 1,742 Climbing FlightAware ADS-B (EPLB / LUZ)
Wed 11:32:56 PM 42.2369 -79.7465 232° Southwest 455 524 27,100 2,063 Level FlightAware ADS-B (CYYZ)
Wed 11:33:25 PM 42.1974 -79.8127 232° Southwest 454 522 28,200 2,136 Climbing FlightAware ADS-B (CYYZ)
Wed 11:33:55 PM 42.1597 -79.8743 232° Southwest 453 521 29,200 1,900 Climbing FlightAware ADS-B (CYYZ)
Wed 11:34:25 PM 42.1181 -79.9448 232° Southwest 453 521 30,100 1,900 Climbing FlightAware ADS-B (CYYZ)
Wed 11:34:55 PM 42.0796 -80.0082 232° Southwest 450 518 31,100 2,000 Climbing FlightAware ADS-B (CYYZ)
Wed 11:35:25 PM 42.0396 -80.0753 231° Southwest 447 514 32,100 1,900 Climbing FlightAware ADS-B (CYYZ)
Wed 11:35:55 PM 42.0047 -80.1312 231° Southwest 445 512 33,000 1,700 Climbing FlightAware ADS-B (CYYZ)
Wed 11:36:25 PM 41.9659 -80.1954 231° Southwest 442 509 33,800 779 Climbing FlightAware ADS-B (CYYZ)
Wed 11:37:12 PM 41.9003 -80.3043 231° Southwest 446 513 34,000 109 Climbing FlightAware ADS-B (CYYZ)
Wed 11:38:15 PM 41.8206 -80.4332 231° Southwest 446 513 34,000  Level FlightAware ADS-B (CYYZ)
Wed 11:38:45 PM 41.7803 -80.4999 231° Southwest 436 502 34,000  Level FlightAware ADS-B (CYYZ)
Wed 11:38:49 PM 41.7758 -80.5063 231° Southwest 438 504 34,000  Level FlightAware ADS-B (EPLB / LUZ)
Wed 11:39:15 PM 41.7421 -80.5610 231° Southwest 442 509 34,000  Level FlightAware ADS-B (CYYZ)
Wed 11:39:24 PM 41.7341 -80.5736 231° Southwest 442 509 34,000  Level FlightAware ADS-B (CYYZ)
Wed 11:40:14 PM 41.6676 -80.6842 231° Southwest 443 510 34,000  Level FlightAware ADS-B (CYYZ)
Wed 11:40:39 PM 41.6478 -80.7162 231° Southwest 443 510 34,000  Level FlightAware ADS-B (EPLB / LUZ)
Wed 11:40:46 PM 41.6249 -80.7541 231° Southwest 442 509 34,000  Level FlightAware ADS-B (CYYZ)
Wed 11:41:08 PM 41.6002 -80.7920 231° Southwest 441 507 34,000  Level FlightAware ADS-B (CYYZ)
Wed 11:41:45 PM 41.5489 -80.8758 231° Southwest 441 507 34,000  Level FlightAware ADS-B (CYYZ)
Wed 11:42:15 PM 41.5072 -80.9415 231° Southwest 448 516 34,000  Level FlightAware ADS-B (CYYZ)
Wed 11:42:24 PM 41.5002 -80.9542 230° Southwest 448 516 34,000  Level FlightAware ADS-B (EPLB / LUZ)
Wed 11:42:45 PM 41.4686 -81.0031 231° Southwest 448 516 34,000  Level FlightAware ADS-B (CYYZ)
Wed 11:43:42 PM 41.3937 -81.1242 230° Southwest 445 512 34,000  Level FlightAware ADS-B (EPLB / LUZ)
Wed 11:44:19 PM 41.3525 -81.1893 231° Southwest 443 510 34,000  Level FlightAware ADS-B (CYYZ)
Wed 11:44:36 PM 41.3290 -81.2269 230° Southwest 443 510 34,000  Level FlightAware ADS-B (EPLB / LUZ)
Wed 11:44:51 PM 41.3028 -81.2689 231° Southwest 445 512 34,000  Level FlightAware ADS-B (CYYZ)
Wed 11:45:21 PM 41.2620 -81.3342 231° Southwest 449 517 34,000 100 Level FlightAware ADS-B (CYYZ)
Wed 11:45:51 PM 41.2257 -81.3915 231° Southwest 450 518 34,100 100 Climbing FlightAware ADS-B (CYYZ)
Wed 11:46:21 PM 41.1815 -81.4617 231° Southwest 453 521 34,100  Level FlightAware ADS-B (CYYZ)
Wed 11:46:51 PM 41.1413 -81.5236 231° Southwest 454 522 34,100 -102 Level FlightAware ADS-B (CYYZ)
Wed 11:47:20 PM 41.1005 -81.5873 230° Southwest 452 520 34,000 -102 Descending FlightAware ADS-B (CYYZ)
Wed 11:47:50 PM 41.0601 -81.6508 230° Southwest 450 518 34,000  Level FlightAware ADS-B (CYYZ)
Wed 11:48:19 PM 41.0217 -81.7119 230° Southwest 451 519 34,000  Level FlightAware ADS-B (CYYZ)
Wed 11:48:23 PM 41.0162 -81.7203 230° Southwest 452 520 34,000  Level FlightAware ADS-B (EPLB / LUZ)
Wed 11:48:51 PM 40.9793 -81.7775 230° Southwest 453 521 34,000  Level FlightAware ADS-B (CYYZ)
Wed 11:49:15 PM 40.9552 -81.8155 230° Southwest 454 522 34,000  Level FlightAware ADS-B (CYYZ)
Wed 11:49:45 PM 40.9122 -81.8831 230° Southwest 453 521 34,000  Level Cleveland Center
Wed 11:50:46 PM 40.8289 -82.0125 230° Southwest 454 522 34,000  Level Cleveland Center
Wed 11:51:47 PM 40.7461 -82.1419 230° Southwest 455 524 34,000  Level Cleveland Center
Wed 11:52:47 PM 40.6631 -82.2692 229° Southwest 455 524 34,000  Level Cleveland Center
Wed 11:53:38 PM 40.5939 -82.3761 230° Southwest 455 524 34,000  Level Indianapolis Center
Wed 11:54:39 PM 40.5106 -82.5039 229° Southwest 455 524 34,000  Level Indianapolis Center
Wed 11:55:41 PM 40.4278 -82.6314 230° Southwest 455 524 34,000  Level Indianapolis Center
Wed 11:56:42 PM 40.3422 -82.7583 229° Southwest 456 525 34,000  Level Indianapolis Center
Wed 11:57:43 PM 40.2558 -82.8847 228° Southwest 456 525 34,000 -549 Level Indianapolis Center
Thu 12:03:59 AM 39.7123 -83.6509 228° Southwest 470 541 30,000 -565 Descending FlightAware ADS-B
Thu 12:04:37 AM 39.6526 -83.7407 231° Southwest 470 541 30,100 88 Climbing FlightAware ADS-B
Thu 12:05:07 AM 39.6155 -83.7994 230° Southwest 471 542 30,100 -42 Level FlightAware ADS-B
Thu 12:06:59 AM 39.4538 -84.0459 230° Southwest 463 533 30,000  Descending FlightAware ADS-B
Thu 12:07:50 AM 39.3814 -84.1556 230° Southwest 465 535 30,100  Climbing FlightAware ADS-B
Thu 12:08:32 AM 39.3339 -84.2273 230° Southwest 465 535 30,000 -1,944 Descending FlightAware ADS-B
Thu 12:12:00 AM 39.0214 -84.6311 224° Southwest 417 480 22,000 -2,370 Descending FlightAware ADS-B (KCVG)
Thu 12:12:30 AM 38.9816 -84.6809 224° Southwest 402 463 20,600 -2,870 Descending FlightAware ADS-B (KCVG)
Thu 12:13:09 AM 38.9299 -84.7442 224° Southwest 390 449 18,700 -2,583 Descending FlightAware ADS-B (KCVG)
Thu 12:13:42 AM 38.8873 -84.7967 224° Southwest 383 441 17,500 -2,620 Descending FlightAware ADS-B (KCVG)
Thu 12:14:20 AM 38.8464 -84.8466 224° Southwest 381 438 15,600 -2,789 Descending FlightAware ADS-B (KCVG)
Thu 12:14:53 AM 38.7990 -84.9040 224° Southwest 378 435 14,200 -1,619 Descending FlightAware ADS-B (KCVG)
Thu 12:15:23 AM 38.7597 -84.9517 224° Southwest 378 435 13,900 -843 Descending FlightAware ADS-B (KCVG)
Thu 12:20:06 AM 38.3985 -85.2981 217° Southwest 285 328 9,800 -941 Descending FlightAware ADS-B
Thu 12:21:20 AM 38.3214 -85.3736 217° Southwest 278 320 8,300 -844 Descending FlightAware ADS-B
Thu 12:22:21 AM 38.2638 -85.4273 216° Southwest 235 270 7,900 -694 Descending FlightAware ADS-B
Thu 12:23:21 AM 38.2131 -85.4752 216° Southwest 222 255 6,900 -1,100 Descending FlightAware ADS-B
Thu 12:24:21 AM 38.1643 -85.5213 217° Southwest 216 249 5,700 -1,200 Descending FlightAware ADS-B
Thu 12:25:21 AM 38.1162 -85.5659 211° Southwest 215 247 4,500 -900 Descending FlightAware ADS-B
Thu 12:26:21 AM 38.0552 -85.5619 171° South 223 257 3,900 -655 Descending FlightAware ADS-B
Thu 12:27:20 AM 37.9948 -85.5493 171° South 221 254 3,200 -500 Descending FlightAware ADS-B
Thu 12:28:21 AM 37.9615 -85.5971 257° West 194 223 2,900 -146 Descending FlightAware ADS-B
Thu 12:29:23 AM 37.9852 -85.6521 322° Northwest 188 216 2,900 -89 Level FlightAware ADS-B
Thu 12:30:36 AM 38.0451 -85.6831 346° North 197 227 2,700 -541 Descending FlightAware ADS-B
Thu 12:31:36 AM 38.0959 -85.6998 344° North 170 196 1,700 -857 Descending FlightAware ADS-B
Thu 12:32:35 AM 38.1342 -85.7132 346° North 138 159 1,000 -712 Descending FlightAware ADS-B

Login

Don't have an account? Register now (free) for customized features, flight alerts, and more!